Glencoe, MN

2:06 AM CST on December 06, 2019 (GMT -0600)
Glencoe Municipal

Weather History for KGYL - October, 2019

Change the Weather History Date:

Tuesday, October 22, 2019

  Actual Average (KHCD) Record (KHCD)
Temperature  
Mean Temperature 43 °F -  
Max Temperature 47 °F 55 °F 76 °F (1967)
Min Temperature 38 °F 35 °F 17 °F (1976)
Degree Days  
Heating Degree Days 22    
Moisture  
Dew Point 37 °F    
Average Humidity 82    
Maximum Humidity 100    
Minimum Humidity 57    
Precipitation  
Precipitation 0.12 in - - ()
Sea Level Pressure  
Sea Level Pressure 29.52 in    
Wind  
Wind Speed 20 mph (West)    
Max Wind Speed 26 mph    
Max Gust Speed 39 mph    
Visibility 9 miles    
Events Rain    
Averages and records for this station are not official NWS values.
T = Trace of Precipitation, MM = Missing Value Source: NWS Daily Summary

Daily Weather History Graph

Daily Weather History Graph

Search for Another Location

Airport or City:

Astronomy

Oct. 22, 2019 Rise Set
Actual Time 7:40 AM CDT 6:20 PM CDT
Civil Twilight 7:10 AM CDT 6:50 PM CDT
Nautical Twilight 6:36 AM CDT 7:24 PM CDT
Astronomical Twilight 6:02 AM CDT 7:57 PM CDT
Moon 12:30 AM CDT (10/22) 3:49 PM CDT (10/22)
Length of Visible Light 11h 39m
Length of Day
10h 39m
Last Quarter, 37% of the Moon is Illuminated
Oct 22
Last Quarter
Oct 27
New
Nov 4
First Quarter
Nov 12
Full
Nov 19
Last Quarter

Hourly Weather History & Observations

Time (CDT) Temp. Windchill Dew Point Humidity Pressure Visibility Wind Dir Wind Speed Gust Speed Precip Events Conditions
12:15 AM 41.2 °F 31.6 °F 41.4 °F 100% 29.26 in 5.0 mi NW 21.9 mph 32.2 mph 0.01 in Rain Light Rain
12:16 AM 41.2 °F 31.6 °F 41.4 °F 100% 29.26 in 5.0 mi NW 21.9 mph 29.9 mph 0.01 in Rain Light Rain
12:38 AM 41.4 °F 31.2 °F 41.5 °F 100% 29.27 in 7.0 mi NW 25.3 mph 29.9 mph 0.03 in Rain Light Rain
12:56 AM 41.9 °F 32.6 °F 41.9 °F 100% 29.28 in 7.0 mi NW 21.9 mph 34.5 mph 0.03 in Rain Rain
1:15 AM 42.3 °F 33.6 °F 42.6 °F 100% 29.29 in 7.0 mi NW 19.6 mph 26.5 mph N/A   Drizzle
1:35 AM 42.8 °F 34.5 °F 42.8 °F 100% 29.30 in 7.0 mi NW 18.4 mph 32.2 mph 0.01 in Rain Rain
1:39 AM 42.8 °F 34.5 °F 43.0 °F 100% 29.30 in 7.0 mi NW 18.4 mph 27.6 mph 0.02 in Rain Rain
1:56 AM 43.7 °F 35.4 °F 43.7 °F 100% 29.31 in 7.0 mi NW 19.6 mph 28.8 mph 0.03 in Rain Light Rain
2:15 AM 43.9 °F 37.5 °F 44.1 °F 100% 29.32 in 10.0 mi NW 12.7 mph 23.0 mph 0.01 in Rain Light Rain
2:16 AM 43.9 °F 37.5 °F 44.1 °F 100% 29.32 in 7.0 mi WNW 12.7 mph 23.0 mph 0.01 in Rain Light Rain
2:38 AM 43.7 °F 34.3 °F 43.9 °F 100% 29.33 in 5.0 mi WNW 25.3 mph 39.1 mph 0.03 in Rain Light Rain
2:55 AM 43.2 °F 34.2 °F 43.3 °F 100% 29.33 in 5.0 mi WNW 21.9 mph 35.7 mph 0.04 in Rain Rain
2:56 AM 43.2 °F 34.0 °F 43.3 °F 100% 29.33 in 5.0 mi WNW 23.0 mph 35.7 mph 0.04 in Rain Rain
3:15 AM 43.0 °F 34.0 °F 43.2 °F 100% 29.34 in 5.0 mi WNW 21.9 mph 33.4 mph N/A   Light Drizzle
3:19 AM 43.0 °F 33.8 °F 43.2 °F 100% 29.34 in 5.0 mi WNW 23.0 mph 32.2 mph N/A   Light Drizzle
3:37 AM 43.2 °F 34.2 °F 43.3 °F 100% 29.35 in 10.0 mi WNW 21.9 mph 34.5 mph N/A   Overcast
3:55 AM 43.2 °F 34.2 °F 43.3 °F 100% 29.35 in 10.0 mi WNW 21.9 mph 38.0 mph N/A   Overcast
3:56 AM 43.2 °F 33.6 °F 43.2 °F 100% 29.35 in 10.0 mi WNW 25.3 mph 38.0 mph N/A   Overcast
4:15 AM 42.8 °F 33.1 °F 42.8 °F 100% 29.37 in 7.0 mi WNW 25.3 mph 32.2 mph 0.01 in Rain Light Rain
4:19 AM 42.8 °F 33.1 °F 42.8 °F 100% 29.37 in 7.0 mi WNW 25.3 mph 33.4 mph 0.01 in Rain Light Rain
4:37 AM 42.3 °F 32.6 °F 42.4 °F 100% 29.38 in 10.0 mi West 24.2 mph 34.5 mph 0.01 in   Light Drizzle
4:55 AM 42.1 °F 33.9 °F 42.3 °F 100% 29.39 in 10.0 mi WNW 17.3 mph 31.1 mph 0.01 in   Drizzle
4:56 AM 42.1 °F 33.9 °F 42.3 °F 100% 29.39 in 10.0 mi West 17.3 mph 31.1 mph 0.01 in   Drizzle
5:15 AM 41.9 °F 32.6 °F 42.1 °F 100% 29.40 in 10.0 mi West 21.9 mph 34.5 mph 0.01 in   Light Drizzle
5:16 AM 41.9 °F 33.1 °F 42.1 °F 100% 29.40 in 10.0 mi West 19.6 mph 32.2 mph 0.01 in   Light Drizzle
5:38 AM - - - N/A% 29.41 in 10.0 mi West 18.4 mph 29.9 mph 0.01 in   Light Drizzle
5:55 AM 41.2 °F 31.6 °F 41.4 °F 100% 29.42 in 7.0 mi West 21.9 mph 28.8 mph 0.01 in   Overcast
6:15 AM 41.0 °F 32.2 °F 41.2 °F 100% 29.43 in 10.0 mi West 18.4 mph 31.1 mph N/A   Overcast
6:16 AM 41.0 °F 31.6 °F 41.2 °F 100% 29.43 in 10.0 mi West 20.7 mph 31.1 mph N/A   Overcast
6:35 AM 40.5 °F 30.4 °F 40.6 °F 100% 29.44 in 10.0 mi West 23.0 mph 35.7 mph N/A   Overcast
6:57 AM 40.5 °F 30.9 °F 40.6 °F 100% 29.45 in 10.0 mi West 20.7 mph 29.9 mph N/A   Overcast
7:15 AM 40.5 °F 30.2 °F 40.6 °F 100% 29.45 in 10.0 mi West 24.2 mph 33.4 mph N/A   Overcast
7:16 AM 40.5 °F 30.7 °F 40.6 °F 100% 29.45 in 10.0 mi West 21.9 mph 33.4 mph N/A   Overcast
7:35 AM 40.5 °F 30.0 °F 40.6 °F 100% 29.45 in 10.0 mi West 25.3 mph 28.8 mph N/A   Overcast
7:36 AM 40.5 °F 30.0 °F 40.6 °F 100% 29.45 in 10.0 mi West 25.3 mph 32.2 mph N/A   Overcast
7:59 AM 40.1 °F 29.9 °F 40.3 °F 100% 29.47 in 10.0 mi West 23.0 mph 32.2 mph N/A   Overcast
8:16 AM 40.3 °F 31.3 °F 40.5 °F 100% 29.47 in 10.0 mi West 18.4 mph 27.6 mph N/A   Overcast
8:35 AM 40.3 °F 30.7 °F 40.5 °F 100% 29.48 in 10.0 mi West 20.7 mph 29.9 mph N/A   Overcast
8:36 AM 40.3 °F 30.2 °F 40.5 °F 100% 29.48 in 10.0 mi West 23.0 mph 29.9 mph N/A   Overcast
8:58 AM 40.1 °F 29.5 °F 40.1 °F 100% 29.48 in 10.0 mi West 25.3 mph 33.4 mph N/A   Overcast
9:15 AM 40.1 °F 29.5 °F 39.6 °F 98% 29.49 in 10.0 mi West 25.3 mph 32.2 mph N/A   Overcast
9:16 AM 40.1 °F 29.5 °F 39.6 °F 98% 29.49 in 10.0 mi West 25.3 mph 33.4 mph N/A   Overcast
9:35 AM 40.1 °F 30.7 °F 38.8 °F 95% 29.49 in 10.0 mi West 19.6 mph 31.1 mph N/A   Overcast
9:58 AM 40.3 °F 30.2 °F 39.0 °F 95% 29.51 in 10.0 mi West 23.0 mph 29.9 mph N/A   Overcast
10:15 AM 40.5 °F 30.9 °F 38.7 °F 93% 29.51 in 10.0 mi West 20.7 mph 32.2 mph N/A   Overcast
10:16 AM 40.5 °F 30.4 °F 38.7 °F 93% 29.51 in 10.0 mi West 23.0 mph 32.2 mph N/A   Overcast
10:36 AM 40.6 °F 30.4 °F 37.2 °F 88% 29.52 in 10.0 mi West 24.2 mph 36.8 mph N/A   Overcast
10:58 AM 41.0 °F 33.1 °F 37.6 °F 88% 29.53 in 10.0 mi West 15.0 mph 31.1 mph N/A   Overcast
11:15 AM 41.0 °F 31.6 °F 37.4 °F 87% 29.54 in 10.0 mi West 20.7 mph 33.4 mph N/A   Overcast
11:35 AM 41.5 °F 32.4 °F 35.8 °F 80% 29.55 in 10.0 mi West 20.7 mph 34.5 mph N/A   Overcast
11:36 AM 41.5 °F 32.6 °F 35.8 °F 80% 29.55 in 10.0 mi West 19.6 mph 34.5 mph N/A   Overcast
11:55 AM 41.5 °F 31.9 °F 35.8 °F 80% 29.55 in 10.0 mi West 23.0 mph 32.2 mph N/A   Overcast
11:59 AM 41.9 °F 32.3 °F 35.6 °F 78% 29.55 in 10.0 mi West 23.0 mph 31.1 mph N/A   Overcast
12:16 PM 42.8 °F 34.3 °F 36.1 °F 77% 29.55 in 10.0 mi West 19.6 mph 28.8 mph N/A   Overcast
12:35 PM 43.2 °F 33.6 °F 35.1 °F 73% 29.55 in 10.0 mi West 25.3 mph 36.8 mph N/A   Mostly Cloudy
12:57 PM 43.3 °F 35.0 °F 34.3 °F 71% 29.55 in 10.0 mi West 19.6 mph 34.5 mph N/A   Mostly Cloudy
1:15 PM 43.9 °F 35.4 °F 34.9 °F 71% 29.56 in 10.0 mi West 20.7 mph 32.2 mph N/A   Scattered Clouds
1:16 PM 44.2 °F 34.8 °F 35.1 °F 70% 29.56 in 10.0 mi West 26.5 mph 36.8 mph N/A   Mostly Cloudy
1:35 PM 44.8 °F 36.2 °F 34.3 °F 67% 29.56 in 10.0 mi West 23.0 mph 35.7 mph N/A   Mostly Cloudy
1:36 PM 44.8 °F 35.7 °F 34.5 °F 67% 29.56 in 10.0 mi West 25.3 mph 35.7 mph N/A   Mostly Cloudy
1:57 PM 44.8 °F 35.9 °F 34.3 °F 67% 29.58 in 10.0 mi West 24.2 mph 36.8 mph N/A   Mostly Cloudy
2:16 PM 45.5 °F 37.8 °F 34.7 °F 66% 29.58 in 10.0 mi West 19.6 mph 29.9 mph N/A   Overcast
2:35 PM 45.3 °F 37.3 °F 34.5 °F 66% 29.58 in 10.0 mi West 20.7 mph 31.1 mph N/A   Overcast
2:36 PM 45.5 °F 37.8 °F 34.5 °F 65% 29.58 in 10.0 mi West 19.6 mph 31.1 mph N/A   Overcast
2:58 PM 45.5 °F 36.9 °F 33.6 °F 63% 29.59 in 10.0 mi West 24.2 mph 36.8 mph N/A   Mostly Cloudy
3:15 PM 46.4 °F 39.2 °F 34.7 °F 64% 29.59 in 10.0 mi West 18.4 mph 32.2 mph N/A   Overcast
3:35 PM 47.1 °F - 34.9 °F 62% 29.60 in 10.0 mi West 19.6 mph 29.9 mph N/A   Overcast
3:39 PM 47.8 °F - 34.9 °F 61% 29.60 in 10.0 mi WNW 19.6 mph 32.2 mph N/A   Overcast
3:57 PM 46.8 °F - 34.0 °F 61% 29.61 in 10.0 mi West 25.3 mph 35.7 mph N/A   Overcast
4:15 PM 47.3 °F - 33.6 °F 59% 29.61 in 10.0 mi West 24.2 mph 32.2 mph N/A   Overcast
4:16 PM 47.3 °F - 33.4 °F 59% 29.61 in 10.0 mi West 24.2 mph 32.2 mph N/A   Overcast
4:35 PM 47.3 °F - 33.6 °F 59% 29.63 in 10.0 mi West 16.1 mph 31.1 mph N/A   Overcast
4:59 PM 46.9 °F - 33.1 °F 59% 29.63 in 10.0 mi West 25.3 mph 33.4 mph N/A   Overcast
5:16 PM 46.8 °F - 32.2 °F 57% 29.64 in 10.0 mi West 19.6 mph 28.8 mph N/A   Overcast
5:59 PM 46.4 °F 40.4 °F 32.0 °F 57% 29.66 in 10.0 mi West 13.8 mph 24.2 mph N/A   Overcast
6:08 PM - - - N/A% 29.66 in 10.0 mi West 11.5 mph 18.4 mph N/A   Overcast
6:15 PM 46.4 °F 39.8 °F 32.2 °F 58% 29.66 in 10.0 mi West 16.1 mph 21.9 mph N/A   Overcast
6:16 PM 46.4 °F 39.5 °F 32.2 °F 58% 29.66 in 10.0 mi West 17.3 mph 21.9 mph N/A   Overcast
6:35 PM 45.9 °F 39.7 °F 32.0 °F 58% 29.67 in 10.0 mi West 13.8 mph 21.9 mph N/A   Overcast
6:57 PM 45.7 °F 39.5 °F 32.0 °F 59% 29.68 in 10.0 mi West 13.8 mph 23.0 mph N/A   Overcast
7:15 PM 45.5 °F 40.3 °F 32.0 °F 59% 29.69 in 10.0 mi West 10.4 mph 19.6 mph N/A   Overcast
7:16 PM 45.5 °F 39.9 °F 32.0 °F 59% 29.69 in 10.0 mi West 11.5 mph 19.6 mph N/A   Overcast
7:35 PM 45.0 °F 38.9 °F 32.0 °F 60% 29.69 in 10.0 mi West 12.7 mph 17.3 mph N/A   Overcast
7:57 PM 44.6 °F 39.2 °F 32.0 °F 61% 29.70 in 10.0 mi West 10.4 mph 20.7 mph N/A   Overcast
8:15 PM 44.6 °F 37.4 °F 31.8 °F 61% 29.70 in 10.0 mi West 16.1 mph 24.2 mph N/A   Overcast
8:16 PM 44.6 °F 37.4 °F 31.8 °F 61% 29.70 in 10.0 mi West 16.1 mph 24.2 mph N/A   Overcast
8:38 PM 43.7 °F 36.0 °F 31.5 °F 62% 29.71 in 10.0 mi West 17.3 mph 23.0 mph N/A   Overcast
8:56 PM 43.7 °F 36.9 °F 31.5 °F 62% 29.71 in 10.0 mi West 13.8 mph 24.2 mph N/A   Overcast
9:15 PM 42.8 °F 36.6 °F 31.6 °F 65% 29.71 in 10.0 mi West 11.5 mph 18.4 mph N/A   Mostly Cloudy
9:16 PM 42.8 °F 35.8 °F 31.8 °F 65% 29.71 in 10.0 mi West 13.8 mph 18.4 mph N/A   Mostly Cloudy
9:37 PM 41.9 °F 35.0 °F 31.8 °F 67% 29.72 in 10.0 mi West 12.7 mph 17.3 mph N/A   Clear
9:55 PM 41.4 °F 35.2 °F 32.0 °F 69% 29.72 in 10.0 mi West 10.4 mph 18.4 mph N/A   Clear
9:56 PM 41.4 °F 35.2 °F 32.0 °F 69% 29.72 in 10.0 mi West 10.4 mph 18.4 mph N/A   Clear
10:15 PM 40.5 °F 35.1 °F 32.0 °F 72% 29.72 in 10.0 mi West 8.1 mph - N/A   Clear
10:38 PM 40.1 °F 34.7 °F 32.0 °F 73% 29.73 in 10.0 mi West 8.1 mph - N/A   Clear
10:55 PM 39.9 °F 33.4 °F 32.0 °F 73% 29.73 in 10.0 mi West 10.4 mph - N/A   Clear
11:15 PM 39.2 °F 32.5 °F 31.8 °F 75% 29.73 in 10.0 mi West 10.4 mph - N/A   Clear
11:16 PM 39.2 °F 33.0 °F 31.8 °F 75% 29.73 in 10.0 mi West 9.2 mph - N/A   Clear
11:38 PM 39.0 °F 32.3 °F 32.0 °F 76% 29.73 in 10.0 mi West 10.4 mph 18.4 mph N/A   Clear
11:55 PM 38.7 °F 31.4 °F 31.8 °F 76% 29.73 in 10.0 mi West 11.5 mph 16.1 mph N/A   Clear